Time;durP1;ratioP1;P1;durP2;ratioP2;P2;SDS_P1;SDS_P2;PMS_P1;PMS_P2;Temp;Humidity;BMP_temperature;BMP_pressure;BME280_temperature;BME280_humidity;BME280_pressure;Samples;Min_cycle;Max_cycle;Signal;HPM_P1;HPM_P2
2022/08/23 00:00:12;;;;;;;3.77;2.30;;;23.50;99.90;;;;;;1051288;28;20023;-68
2022/08/23 00:00:43;;;;;;;4.03;2.70;;;23.50;99.90;;;;;;1052202;28;20065;-69
2022/08/23 00:01:21;;;;;;;3.47;2.40;;;23.50;99.90;;;;;;1051467;28;20087;-69
2022/08/23 00:01:55;;;;;;;3.55;2.30;;;23.50;99.90;;;;;;1047401;28;20055;-70
2022/08/23 00:02:26;;;;;;;5.28;2.58;;;23.50;99.90;;;;;;1045165;28;20028;-70
2022/08/23 00:02:57;;;;;;;5.78;2.75;;;23.50;99.90;;;;;;1044977;28;20029;-69
2022/08/23 00:03:28;;;;;;;4.13;2.20;;;23.50;99.90;;;;;;1047461;28;20020;-69
2022/08/23 00:04:03;;;;;;;4.27;2.60;;;23.50;99.90;;;;;;1047016;28;20135;-69
2022/08/23 00:04:38;;;;;;;3.33;2.30;;;23.50;99.90;;;;;;1051653;28;20078;-69
2022/08/23 00:05:09;;;;;;;3.92;2.30;;;23.50;99.90;;;;;;1051530;28;20082;-69
2022/08/23 00:05:39;;;;;;;4.00;2.47;;;23.50;99.90;;;;;;1053060;28;20364;-69
2022/08/23 00:06:10;;;;;;;4.03;2.20;;;23.50;99.90;;;;;;1056050;28;20024;-70
2022/08/23 00:06:41;;;;;;;3.13;2.50;;;23.40;99.90;;;;;;1056247;28;20027;-69
2022/08/23 00:07:14;;;;;;;3.50;2.47;;;23.40;99.90;;;;;;1056097;28;20015;-69
2022/08/23 00:07:44;;;;;;;3.45;2.28;;;23.40;99.90;;;;;;1056396;28;20024;-69
2022/08/23 00:08:15;;;;;;;3.10;2.07;;;23.40;99.90;;;;;;1051210;28;20032;-69
2022/08/23 00:08:47;;;;;;;6.13;2.80;;;23.40;99.90;;;;;;1051656;28;20039;-69
2022/08/23 00:09:20;;;;;;;3.33;2.47;;;23.40;99.90;;;;;;1051162;28;20036;-69
2022/08/23 00:09:51;;;;;;;2.83;2.17;;;23.40;99.90;;;;;;1047508;28;20517;-69
2022/08/23 00:10:21;;;;;;;3.13;2.10;;;23.40;99.90;;;;;;1051267;28;20414;-68
2022/08/23 00:10:52;;;;;;;2.67;2.17;;;23.40;99.90;;;;;;1052228;28;20103;-68
2022/08/23 00:11:30;;;;;;;3.40;2.40;;;23.40;99.90;;;;;;1055629;28;20016;-69
2022/08/23 00:12:06;;;;;;;2.47;2.20;;;23.40;99.90;;;;;;1058986;27;20015;-68
2022/08/23 00:12:38;;;;;;;4.38;2.53;;;23.40;99.90;;;;;;1050296;28;20024;-70
2022/08/23 00:13:09;;;;;;;2.97;2.28;;;23.40;99.90;;;;;;1047458;28;20036;-69
2022/08/23 00:13:39;;;;;;;4.30;2.50;;;23.40;99.90;;;;;;1051239;28;20024;-69
2022/08/23 00:14:22;;;;;;;3.00;2.30;;;23.40;99.90;;;;;;1047618;28;20016;-69
2022/08/23 00:14:54;;;;;;;3.65;2.30;;;23.40;99.90;;;;;;1052759;28;20093;-70
2022/08/23 00:15:25;;;;;;;4.63;2.25;;;23.40;99.90;;;;;;1053706;28;20483;-69
2022/08/23 00:15:55;;;;;;;4.87;2.07;;;23.40;99.90;;;;;;1053507;28;20467;-69
2022/08/23 00:16:27;;;;;;;3.67;2.53;;;23.40;99.90;;;;;;1056191;28;20102;-69
2022/08/23 00:16:58;;;;;;;5.28;2.28;;;23.40;99.90;;;;;;1055958;28;20027;-69
2022/08/23 00:17:29;;;;;;;3.35;2.03;;;23.40;99.90;;;;;;1056517;28;20057;-69
2022/08/23 00:17:59;;;;;;;3.07;2.07;;;23.30;99.90;;;;;;1055870;28;20081;-69
2022/08/23 00:18:30;;;;;;;3.80;2.27;;;23.30;99.90;;;;;;1056170;28;20015;-68
2022/08/23 00:19:03;;;;;;;2.88;2.55;;;23.30;99.90;;;;;;1051262;28;20012;-68
2022/08/23 00:19:35;;;;;;;4.93;2.92;;;23.30;99.90;;;;;;1051431;28;20058;-67
2022/08/23 00:20:08;;;;;;;3.90;2.40;;;23.30;99.90;;;;;;1051692;28;20103;-68
2022/08/23 00:20:38;;;;;;;3.40;2.40;;;23.30;99.90;;;;;;1051546;28;20035;-68
2022/08/23 00:21:12;;;;;;;2.47;2.10;;;23.30;99.90;;;;;;1055244;28;20016;-68
2022/08/23 00:21:43;;;;;;;4.03;2.50;;;23.30;99.90;;;;;;1055774;28;20031;-68
2022/08/23 00:22:14;;;;;;;4.40;2.38;;;23.30;99.90;;;;;;1056268;27;20061;-69
2022/08/23 00:22:45;;;;;;;2.70;2.23;;;23.30;99.90;;;;;;1059838;27;20096;-69
2022/08/23 00:23:16;;;;;;;4.10;2.50;;;23.30;99.90;;;;;;1055767;28;20019;-69
2022/08/23 00:23:47;;;;;;;3.90;2.20;;;23.20;99.90;;;;;;1051562;28;20020;-69
2022/08/23 00:24:18;;;;;;;6.93;2.53;;;23.20;99.90;;;;;;1051324;28;20028;-68
2022/08/23 00:24:48;;;;;;;3.53;2.42;;;23.20;99.90;;;;;;1051684;28;20089;-69
2022/08/23 00:25:19;;;;;;;3.00;2.40;;;23.20;99.90;;;;;;1051704;28;20052;-68
2022/08/23 00:25:49;;;;;;;3.80;2.33;;;23.20;99.90;;;;;;1056404;28;20015;-69
2022/08/23 00:26:20;;;;;;;3.73;2.37;;;23.20;99.90;;;;;;1055657;28;20019;-73
2022/08/23 00:26:53;;;;;;;4.37;2.53;;;23.20;99.90;;;;;;1054409;28;20621;-68
2022/08/23 00:27:23;;;;;;;3.85;2.30;;;23.20;99.90;;;;;;1046874;28;20021;-70
2022/08/23 00:27:54;;;;;;;4.27;2.53;;;23.30;99.90;;;;;;1048666;28;20016;-70
2022/08/23 00:28:25;;;;;;;3.57;2.13;;;23.20;99.90;;;;;;1051339;28;20128;-69
2022/08/23 00:28:55;;;;;;;5.77;2.80;;;23.20;99.90;;;;;;1051796;28;20111;-68
2022/08/23 00:29:47;;;;;;;4.07;2.53;;;23.20;99.90;;;;;;1055748;28;20042;-68
2022/08/23 00:30:18;;;;;;;2.72;2.30;;;23.20;99.90;;;;;;1055885;28;20011;-71
2022/08/23 00:30:49;;;;;;;3.17;2.30;;;23.20;99.90;;;;;;1056163;28;20016;-68
2022/08/23 00:31:19;;;;;;;3.93;2.47;;;23.20;99.90;;;;;;1049888;28;20391;-68
2022/08/23 00:31:50;;;;;;;3.13;2.40;;;23.20;99.90;;;;;;1047632;28;20474;-69
2022/08/23 00:32:26;;;;;;;2.70;2.27;;;23.20;99.90;;;;;;1047088;28;20044;-69
2022/08/23 00:32:57;;;;;;;3.97;2.40;;;23.20;99.90;;;;;;1049380;28;20008;-70
2022/08/23 00:33:28;;;;;;;4.37;2.83;;;23.20;99.90;;;;;;1055741;28;20020;-69
2022/08/23 00:33:59;;;;;;;2.93;2.30;;;23.20;99.90;;;;;;1056066;28;20088;-69
2022/08/23 00:34:30;;;;;;;4.28;2.20;;;23.20;99.90;;;;;;1051314;28;20484;-69
2022/08/23 00:35:03;;;;;;;3.97;2.17;;;23.20;99.90;;;;;;1051448;28;20016;-69
2022/08/23 00:35:33;;;;;;;3.50;2.22;;;23.20;99.90;;;;;;1051786;28;20089;-68
2022/08/23 00:36:04;;;;;;;4.03;2.27;;;23.20;99.90;;;;;;1052008;28;20073;-69
2022/08/23 00:36:34;;;;;;;3.43;2.30;;;23.20;99.90;;;;;;1048753;28;20024;-69
2022/08/23 00:37:07;;;;;;;3.37;2.70;;;23.20;99.90;;;;;;1043155;28;20431;-69
2022/08/23 00:37:38;;;;;;;3.65;2.58;;;23.30;99.90;;;;;;1043034;28;20025;-69
2022/08/23 00:38:09;;;;;;;3.40;2.42;;;23.30;99.90;;;;;;1044854;28;20064;-69
2022/08/23 00:38:40;;;;;;;4.10;2.37;;;23.30;99.90;;;;;;1051997;28;20035;-69
2022/08/23 00:39:11;;;;;;;3.95;2.35;;;23.30;99.90;;;;;;1056148;28;20028;-69
2022/08/23 00:39:43;;;;;;;4.63;2.50;;;23.20;99.90;;;;;;1055929;28;20066;-69
2022/08/23 00:40:16;;;;;;;5.07;2.40;;;23.20;99.90;;;;;;1055944;28;20081;-69
2022/08/23 00:40:50;;;;;;;3.45;2.10;;;23.20;99.90;;;;;;1056465;28;20032;-69
2022/08/23 00:41:21;;;;;;;3.42;2.25;;;23.20;99.90;;;;;;1055832;28;20024;-69
2022/08/23 00:47:38;;;;;;;3.80;2.33;;;23.20;99.90;;;;;;1055947;28;20026;-69
2022/08/23 00:47:41;;;;;;;4.65;2.70;;;23.20;99.90;;;;;;1056063;28;20045;-68
2022/08/23 00:48:12;;;;;;;5.68;2.85;;;23.20;99.90;;;;;;1051228;28;20096;-71
2022/08/23 00:48:44;;;;;;;5.13;2.55;;;23.10;99.90;;;;;;1051673;28;20055;-70
2022/08/23 00:49:16;;;;;;;3.30;2.03;;;23.10;99.90;;;;;;1050991;28;20055;-69
2022/08/23 00:49:52;;;;;;;4.15;2.28;;;23.10;99.90;;;;;;1049700;28;20032;-69
2022/08/23 00:50:35;;;;;;;4.20;2.33;;;23.10;99.90;;;;;;1047127;28;20089;-69
2022/08/23 00:51:13;;;;;;;2.47;2.03;;;23.10;99.90;;;;;;1052137;28;20044;-70
2022/08/23 00:51:47;;;;;;;;;;;23.10;99.90;;;;;;1051433;28;20082;-69
2022/08/23 00:52:33;;;;;;;4.53;2.10;;;23.10;99.90;;;;;;1050661;28;19971;-69
2022/08/23 00:53:16;;;;;;;4.50;2.38;;;23.10;99.90;;;;;;1051726;28;20427;-69
2022/08/23 00:53:54;;;;;;;3.35;2.00;;;23.10;99.90;;;;;;1050727;28;20039;-70
2022/08/23 00:54:27;;;;;;;4.15;2.17;;;23.10;99.90;;;;;;1051307;28;20039;-69
2022/08/23 00:54:58;;;;;;;3.47;2.05;;;23.10;99.90;;;;;;1051496;28;20695;-69
2022/08/23 00:55:31;;;;;;;4.15;2.55;;;23.10;99.90;;;;;;1051236;28;20023;-70
2022/08/23 00:56:04;;;;;;;2.67;2.17;;;23.10;99.90;;;;;;1051374;28;20024;-70
2022/08/23 00:56:38;;;;;;;3.10;2.28;;;23.10;99.90;;;;;;1051140;28;20020;-69
2022/08/23 00:57:13;;;;;;;3.58;2.90;;;23.10;99.90;;;;;;1052149;28;20078;-70
2022/08/23 00:57:45;;;;;;;3.42;2.50;;;23.10;99.90;;;;;;1051020;28;20020;-69
2022/08/23 00:58:17;;;;;;;4.38;2.22;;;23.00;99.90;;;;;;1051271;28;20590;-69
2022/08/23 00:58:48;;;;;;;3.83;2.67;;;23.00;99.90;;;;;;1047905;28;20477;-74
2022/08/23 00:59:19;;;;;;;3.70;2.42;;;23.00;99.90;;;;;;1047232;28;20032;-70
2022/08/23 00:59:50;;;;;;;5.88;2.25;;;23.00;99.90;;;;;;1051124;28;20024;-70
2022/08/23 01:00:21;;;;;;;3.53;2.10;;;23.00;99.90;;;;;;1051746;28;20099;-70
2022/08/23 01:00:54;;;;;;;2.55;2.20;;;23.00;99.90;;;;;;1055656;28;20020;-70
2022/08/23 01:01:25;;;;;;;2.97;2.05;;;23.00;99.90;;;;;;1051819;28;20147;-70
2022/08/23 01:01:56;;;;;;;4.13;2.40;;;23.00;99.90;;;;;;1051462;28;20028;-69
2022/08/23 01:02:27;;;;;;;2.67;2.10;;;23.00;99.90;;;;;;1051425;28;20080;-70
2022/08/23 01:02:58;;;;;;;3.87;2.30;;;23.00;99.90;;;;;;1049615;28;20094;-68
2022/08/23 01:03:32;;;;;;;2.87;2.00;;;23.00;99.90;;;;;;1047281;28;20016;-69
2022/08/23 01:04:03;;;;;;;3.45;2.40;;;23.00;99.90;;;;;;1050776;28;20650;-69
2022/08/23 01:04:39;;;;;;;3.63;2.33;;;23.00;99.90;;;;;;1052196;28;20142;-69
2022/08/23 01:05:11;;;;;;;3.40;2.38;;;23.00;99.90;;;;;;1050990;28;20046;-69
2022/08/23 01:06:00;;;;;;;3.03;2.25;;;23.00;99.90;;;;;;1051590;28;20032;-69
2022/08/23 01:06:33;;;;;;;3.03;2.40;;;23.00;99.90;;;;;;1051866;28;20081;-69
2022/08/23 01:07:32;;;;;;;3.80;2.45;;;23.00;99.90;;;;;;1054790;28;20097;-69
2022/08/23 01:08:03;;;;;;;3.22;1.95;;;23.00;99.90;;;;;;1055690;28;20312;-69
2022/08/23 01:08:35;;;;;;;4.40;2.70;;;23.00;99.90;;;;;;1055856;28;20500;-68
2022/08/23 01:09:10;;;;;;;4.00;2.47;;;23.00;99.90;;;;;;1051512;28;20050;-70
2022/08/23 01:09:42;;;;;;;3.20;2.42;;;23.00;99.90;;;;;;1051234;28;20575;-69
2022/08/23 01:10:31;;;;;;;3.15;2.22;;;23.00;99.90;;;;;;1047101;28;20020;-69
2022/08/23 01:11:10;;;;;;;3.42;2.10;;;23.00;99.90;;;;;;1050566;28;20078;-69
2022/08/23 01:11:48;;;;;;;2.63;2.28;;;23.00;99.90;;;;;;1051324;28;20482;-75
2022/08/23 01:12:26;;;;;;;2.88;2.20;;;23.00;99.90;;;;;;1051072;28;20371;-70
2022/08/23 01:13:08;;;;;;;2.45;2.20;;;23.00;99.90;;;;;;1051561;28;20076;-69
2022/08/23 01:13:45;;;;;;;3.53;2.35;;;23.00;99.90;;;;;;1047008;28;20026;-69
2022/08/23 01:14:23;;;;;;;4.57;2.70;;;23.00;99.90;;;;;;1051048;28;20008;-69
2022/08/23 01:15:01;;;;;;;3.13;2.35;;;23.00;99.90;;;;;;1053380;28;20099;-69
2022/08/23 01:15:37;;;;;;;2.72;2.13;;;23.00;99.90;;;;;;1051224;28;20114;-69
2022/08/23 01:16:18;;;;;;;4.43;2.78;;;23.00;99.90;;;;;;1051423;28;20012;-69
2022/08/23 01:17:04;;;;;;;2.75;2.35;;;23.00;99.90;;;;;;1047142;28;20132;-69
2022/08/23 01:17:42;;;;;;;3.78;2.40;;;23.00;99.90;;;;;;1046986;28;20024;-69
2022/08/23 01:18:16;;;;;;;2.92;2.10;;;23.00;99.90;;;;;;1051443;28;20065;-69
2022/08/23 01:18:48;;;;;;;3.45;2.70;;;23.00;99.90;;;;;;1050609;28;20023;-69
2022/08/23 01:19:27;;;;;;;4.75;2.50;;;23.00;99.90;;;;;;1051529;28;20020;-69
2022/08/23 01:20:02;;;;;;;3.80;2.38;;;23.00;99.90;;;;;;1046930;28;20115;-69
2022/08/23 01:20:48;;;;;;;3.45;2.42;;;23.00;99.90;;;;;;1049378;28;20119;-70
2022/08/23 01:21:38;;;;;;;4.55;2.50;;;23.00;99.90;;;;;;1051378;28;20012;-70
2022/08/23 01:22:27;;;;;;;4.15;2.38;;;23.00;99.90;;;;;;1056023;28;20154;-70
2022/08/23 01:23:00;;;;;;;4.22;2.55;;;23.00;99.90;;;;;;1056256;27;20020;-69
2022/08/23 01:23:42;;;;;;;3.25;2.17;;;23.00;99.90;;;;;;1057759;27;20049;-70
2022/08/23 01:24:13;;;;;;;3.38;2.53;;;23.00;99.90;;;;;;1055869;28;20505;-70
2022/08/23 01:24:45;;;;;;;4.50;2.42;;;22.90;99.90;;;;;;1056259;28;20111;-70
2022/08/23 01:25:20;;;;;;;5.90;2.83;;;22.90;99.90;;;;;;1055425;28;20023;-70
2022/08/23 01:25:51;;;;;;;3.25;2.50;;;22.90;99.90;;;;;;1056027;28;20098;-70
2022/08/23 01:26:23;;;;;;;3.77;2.27;;;22.90;99.90;;;;;;1055448;28;20076;-70
2022/08/23 01:26:54;;;;;;;3.58;2.28;;;22.90;99.90;;;;;;1055976;28;20257;-68
2022/08/23 01:27:26;;;;;;;3.87;2.40;;;22.90;99.90;;;;;;1051240;28;20016;-69
2022/08/23 01:27:58;;;;;;;3.42;2.25;;;22.90;99.90;;;;;;1047163;28;20112;-69
2022/08/23 01:28:28;;;;;;;3.72;2.45;;;22.90;99.90;;;;;;1051092;28;20013;-68
2022/08/23 01:29:00;;;;;;;4.40;2.77;;;22.90;99.90;;;;;;1051578;28;20020;-69
2022/08/23 01:29:31;;;;;;;4.93;2.50;;;22.90;99.90;;;;;;1051725;28;20016;-68
2022/08/23 01:30:06;;;;;;;3.13;1.95;;;22.90;99.90;;;;;;1055400;28;20095;-69
2022/08/23 01:30:39;;;;;;;3.53;2.38;;;22.90;99.90;;;;;;1046857;28;20377;-69
2022/08/23 01:31:12;;;;;;;3.22;2.03;;;22.90;99.90;;;;;;1048198;28;20200;-69
2022/08/23 01:31:43;;;;;;;2.95;2.30;;;22.90;99.90;;;;;;1051156;28;20043;-69
2022/08/23 01:32:14;;;;;;;3.07;2.50;;;22.90;99.90;;;;;;1052056;28;20562;-70
2022/08/23 01:32:52;;;;;;;3.57;2.23;;;22.90;99.90;;;;;;1051429;28;20012;-69
2022/08/23 01:33:22;;;;;;;3.10;2.22;;;22.90;99.90;;;;;;1051072;28;20819;-69
2022/08/23 01:34:13;;;;;;;3.80;2.50;;;22.90;99.90;;;;;;1051198;28;20811;-69
2022/08/23 01:34:43;;;;;;;4.47;2.88;;;22.90;99.90;;;;;;1047400;28;20012;-71
2022/08/23 01:35:15;;;;;;;3.50;2.17;;;22.90;99.90;;;;;;1047156;28;20028;-69
2022/08/23 01:35:50;;;;;;;4.03;2.47;;;22.80;99.90;;;;;;1050105;28;20752;-70
2022/08/23 01:36:20;;;;;;;4.80;2.90;;;22.80;99.90;;;;;;1047855;28;20099;-69
2022/08/23 01:36:51;;;;;;;5.00;2.50;;;22.90;99.90;;;;;;1051160;28;20016;-70
2022/08/23 01:37:22;;;;;;;2.90;2.13;;;22.80;99.90;;;;;;1051306;28;20012;-70
2022/08/23 01:37:52;;;;;;;5.10;2.73;;;22.80;99.90;;;;;;1051075;28;20022;-70
2022/08/23 01:38:25;;;;;;;3.30;2.33;;;22.80;99.90;;;;;;1046864;28;20012;-70
2022/08/23 01:38:55;;;;;;;3.05;2.22;;;22.80;99.90;;;;;;1046870;28;20012;-69
2022/08/23 01:39:26;;;;;;;3.50;2.40;;;22.80;99.90;;;;;;1047062;28;20135;-69
2022/08/23 01:39:57;;;;;;;2.63;2.03;;;22.80;99.90;;;;;;1047494;28;20627;-69
2022/08/23 01:40:28;;;;;;;3.97;2.67;;;22.80;99.90;;;;;;1051358;28;20499;-70
2022/08/23 01:40:58;;;;;;;3.88;2.40;;;22.80;99.90;;;;;;1051280;28;20101;-69
2022/08/23 01:41:30;;;;;;;5.10;2.47;;;22.80;99.90;;;;;;1051287;28;20134;-69
2022/08/23 01:42:01;;;;;;;3.65;2.35;;;22.80;99.90;;;;;;1050864;28;20012;-69
2022/08/23 01:42:31;;;;;;;3.58;2.10;;;22.80;99.90;;;;;;1051427;28;20020;-69
2022/08/23 01:43:03;;;;;;;3.57;2.00;;;22.80;99.90;;;;;;1046945;28;20048;-69
2022/08/23 01:43:34;;;;;;;3.28;2.50;;;22.80;99.90;;;;;;1047114;28;20017;-69
2022/08/23 01:44:06;;;;;;;3.87;2.30;;;22.80;99.90;;;;;;1047792;28;20132;-69
2022/08/23 01:44:37;;;;;;;2.97;2.10;;;22.80;99.90;;;;;;1051292;28;20028;-68
2022/08/23 01:45:12;;;;;;;3.40;2.53;;;22.80;99.90;;;;;;1051343;28;20012;-69
2022/08/23 01:45:43;;;;;;;4.18;2.13;;;22.80;99.90;;;;;;1047696;28;20009;-69
2022/08/23 01:46:17;;;;;;;3.90;2.63;;;22.80;99.90;;;;;;1051114;28;20058;-68
2022/08/23 01:46:48;;;;;;;5.07;2.80;;;22.80;99.90;;;;;;1051390;28;20040;-69
2022/08/23 01:47:18;;;;;;;4.68;2.47;;;22.80;99.90;;;;;;1051543;28;20012;-69
2022/08/23 01:47:49;;;;;;;3.93;2.40;;;22.80;99.90;;;;;;1056103;28;20011;-70
2022/08/23 01:48:20;;;;;;;3.47;2.50;;;22.80;99.90;;;;;;1050987;28;20781;-69
2022/08/23 01:48:54;;;;;;;4.10;2.55;;;22.80;99.90;;;;;;1046929;28;20024;-68
2022/08/23 01:49:24;;;;;;;4.18;2.47;;;22.80;99.90;;;;;;1046777;28;20025;-69
2022/08/23 01:49:55;;;;;;;4.40;2.43;;;22.80;99.90;;;;;;1048005;28;20024;-69
2022/08/23 01:50:27;;;;;;;3.30;2.17;;;22.80;99.90;;;;;;1051459;28;20478;-69
2022/08/23 01:50:58;;;;;;;4.85;2.47;;;22.80;99.90;;;;;;1047046;28;20097;-68
2022/08/23 01:51:28;;;;;;;2.43;1.83;;;22.80;99.90;;;;;;1046741;28;20047;-69
2022/08/23 01:51:59;;;;;;;3.57;2.30;;;22.80;99.90;;;;;;1047126;28;20027;-69
2022/08/23 01:52:29;;;;;;;2.40;2.03;;;22.80;99.90;;;;;;1049740;28;20612;-71
2022/08/23 01:53:00;;;;;;;3.27;2.20;;;22.80;99.90;;;;;;1055942;28;20461;-69
2022/08/23 01:53:31;;;;;;;5.60;2.57;;;22.80;99.90;;;;;;1055521;28;20023;-68
2022/08/23 01:54:02;;;;;;;3.97;2.17;;;22.80;99.90;;;;;;1055676;28;20258;-68
2022/08/23 01:54:33;;;;;;;4.95;2.60;;;22.80;99.90;;;;;;1051008;28;20045;-69
2022/08/23 01:55:04;;;;;;;4.27;2.57;;;22.80;99.90;;;;;;1047574;28;20021;-69
2022/08/23 01:55:35;;;;;;;4.00;2.65;;;22.80;99.90;;;;;;1042615;28;20044;-70
2022/08/23 01:56:07;;;;;;;2.70;2.22;;;22.80;99.90;;;;;;1046375;28;20121;-69
2022/08/23 01:56:40;;;;;;;3.53;2.13;;;22.80;99.90;;;;;;1047351;28;20466;-68
2022/08/23 01:57:10;;;;;;;2.67;1.90;;;22.80;99.90;;;;;;1047017;28;20036;-69
2022/08/23 01:57:43;;;;;;;3.13;2.30;;;22.80;99.90;;;;;;1050066;28;20021;-69
2022/08/23 01:58:14;;;;;;;3.17;2.40;;;22.80;99.90;;;;;;1055792;28;20016;-70
2022/08/23 01:58:45;;;;;;;3.90;2.50;;;22.80;99.90;;;;;;1055720;28;20028;-69
2022/08/23 01:59:16;;;;;;;3.03;2.00;;;22.80;99.90;;;;;;1055531;28;20038;-69
2022/08/23 01:59:47;;;;;;;3.63;2.13;;;22.80;99.90;;;;;;1055691;28;20034;-70
2022/08/23 02:00:20;;;;;;;4.90;2.47;;;22.80;99.90;;;;;;1056013;28;20529;-70
2022/08/23 02:00:50;;;;;;;4.60;2.42;;;22.80;99.90;;;;;;1050776;28;20130;-69
2022/08/23 02:01:21;;;;;;;2.23;1.83;;;22.80;99.90;;;;;;1051195;28;20024;-71
2022/08/23 02:01:52;;;;;;;3.80;2.17;;;22.80;99.90;;;;;;1051071;28;20479;-71
2022/08/23 02:02:24;;;;;;;3.33;2.37;;;22.80;99.90;;;;;;1051026;28;20024;-71
2022/08/23 02:02:55;;;;;;;4.60;2.88;;;22.70;99.90;;;;;;1051190;28;20300;-71
2022/08/23 02:03:27;;;;;;;3.85;2.60;;;22.70;99.90;;;;;;1051034;28;20077;-70
2022/08/23 02:03:58;;;;;;;2.70;2.35;;;22.70;99.90;;;;;;1050889;28;20364;-71
2022/08/23 02:04:29;;;;;;;3.13;2.33;;;22.70;99.90;;;;;;1051102;28;20455;-71
2022/08/23 02:04:59;;;;;;;4.00;2.80;;;22.60;99.90;;;;;;1046585;28;20012;-71
2022/08/23 02:05:30;;;;;;;3.50;2.43;;;22.60;99.90;;;;;;1043150;28;20271;-69
2022/08/23 02:06:01;;;;;;;4.00;2.67;;;22.60;99.90;;;;;;1046942;28;20045;-71
2022/08/23 02:06:32;;;;;;;3.80;2.40;;;22.60;99.90;;;;;;1043032;28;20107;-70
2022/08/23 02:07:03;;;;;;;3.53;2.40;;;22.60;99.90;;;;;;1047212;28;20447;-70
2022/08/23 02:07:33;;;;;;;4.60;2.60;;;22.60;99.90;;;;;;1051213;28;20341;-71
2022/08/23 02:09:01;;;;;;;3.40;2.35;;;22.60;99.90;;;;;;1056142;28;20062;-70
2022/08/23 02:09:31;;;;;;;4.03;2.78;;;22.50;99.90;;;;;;1054849;28;20046;-70
2022/08/23 02:10:03;;;;;;;4.30;2.30;;;22.50;99.90;;;;;;1051554;28;20055;-69
2022/08/23 02:10:33;;;;;;;3.05;2.45;;;22.50;99.90;;;;;;1051651;28;20023;-69
2022/08/23 02:11:13;;;;;;;3.53;2.30;;;22.50;99.90;;;;;;1046879;28;20116;-70
2022/08/23 02:11:46;;;;;;;4.57;2.65;;;22.50;99.90;;;;;;1047028;28;20035;-70
2022/08/23 02:12:16;;;;;;;2.85;2.22;;;22.50;99.90;;;;;;1046668;28;20099;-69
2022/08/23 02:12:47;;;;;;;3.90;2.50;;;22.50;99.90;;;;;;1046873;28;20020;-69
2022/08/23 02:13:18;;;;;;;3.90;2.58;;;22.50;99.90;;;;;;1046773;28;20078;-70
2022/08/23 02:13:51;;;;;;;4.50;2.75;;;22.50;99.90;;;;;;1047380;28;20399;-71
2022/08/23 02:14:22;;;;;;;4.40;2.60;;;22.50;99.90;;;;;;1046692;28;20020;-70
2022/08/23 02:14:52;;;;;;;3.87;2.90;;;22.50;99.90;;;;;;1048953;28;20021;-70
2022/08/23 02:15:23;;;;;;;3.80;2.53;;;22.50;99.90;;;;;;1051528;28;20020;-70
2022/08/23 02:15:53;;;;;;;3.07;2.20;;;22.50;99.90;;;;;;1059747;27;20117;-70
2022/08/23 02:16:27;;;;;;;3.70;2.70;;;22.50;99.90;;;;;;1057018;27;20026;-71
2022/08/23 02:16:58;;;;;;;3.75;2.58;;;22.50;99.90;;;;;;1055359;28;20020;-71
2022/08/23 02:17:28;;;;;;;3.83;2.83;;;22.50;99.90;;;;;;1050254;28;20038;-71
2022/08/23 02:17:59;;;;;;;4.50;2.40;;;22.50;99.90;;;;;;1047102;28;20118;-70
2022/08/23 02:18:30;;;;;;;2.97;2.50;;;22.50;99.90;;;;;;1051182;28;20057;-70
2022/08/23 02:19:03;;;;;;;2.87;2.23;;;22.50;99.90;;;;;;1051576;28;20034;-71
2022/08/23 02:19:34;;;;;;;4.53;2.28;;;22.50;99.90;;;;;;1050231;28;20007;-70
2022/08/23 02:20:06;;;;;;;4.68;2.85;;;22.50;99.90;;;;;;1047914;28;20016;-70
2022/08/23 02:20:36;;;;;;;2.85;2.30;;;22.60;99.90;;;;;;1050938;28;20338;-70
2022/08/23 02:21:08;;;;;;;5.47;2.73;;;22.60;99.90;;;;;;1051725;28;20405;-69
2022/08/23 02:21:40;;;;;;;4.15;2.42;;;22.60;99.90;;;;;;1051831;28;20089;-70
2022/08/23 02:22:11;;;;;;;5.20;2.85;;;22.60;99.90;;;;;;1046914;28;20024;-70
2022/08/23 02:22:42;;;;;;;5.00;2.88;;;22.60;99.90;;;;;;1046692;28;20044;-70
2022/08/23 02:23:13;;;;;;;3.67;2.77;;;22.60;99.90;;;;;;1049379;28;20359;-70
2022/08/23 02:23:44;;;;;;;4.00;2.13;;;22.60;99.90;;;;;;1051141;28;20027;-70
2022/08/23 02:24:19;;;;;;;2.92;2.63;;;22.60;99.90;;;;;;1051410;28;20012;-70
2022/08/23 02:24:49;;;;;;;3.90;2.60;;;22.60;99.90;;;;;;1054240;28;20091;-71
2022/08/23 02:25:20;;;;;;;3.70;2.70;;;22.60;99.90;;;;;;1055608;28;20052;-70
2022/08/23 02:25:51;;;;;;;4.20;2.73;;;22.60;99.90;;;;;;1055704;28;20016;-70
2022/08/23 02:26:22;;;;;;;4.97;2.67;;;22.60;99.90;;;;;;1055054;28;20462;-71
2022/08/23 02:26:55;;;;;;;4.93;2.30;;;22.60;99.90;;;;;;1051524;28;20516;-71
2022/08/23 02:27:26;;;;;;;3.20;2.38;;;22.60;99.90;;;;;;1051330;28;20016;-70
2022/08/23 02:27:56;;;;;;;3.60;2.33;;;22.60;99.90;;;;;;1051412;28;20016;-71
2022/08/23 02:28:27;;;;;;;3.97;2.73;;;22.60;99.90;;;;;;1053731;28;20469;-71
2022/08/23 02:28:57;;;;;;;2.90;2.40;;;22.70;99.90;;;;;;1055539;28;20012;-71
2022/08/23 02:29:28;;;;;;;3.50;2.17;;;22.60;99.90;;;;;;1051142;28;20499;-71
2022/08/23 02:29:59;;;;;;;3.80;2.42;;;22.70;99.90;;;;;;1048460;28;20414;-71
2022/08/23 02:30:30;;;;;;;4.27;2.30;;;22.70;99.90;;;;;;1046840;28;20464;-71
2022/08/23 02:31:00;;;;;;;5.05;2.60;;;22.70;99.90;;;;;;1047250;28;20054;-71
2022/08/23 02:31:32;;;;;;;3.00;2.60;;;22.70;99.90;;;;;;1047889;28;20392;-69
2022/08/23 02:32:03;;;;;;;4.72;2.42;;;22.70;99.90;;;;;;1051467;28;20561;-73
2022/08/23 02:32:34;;;;;;;3.50;2.50;;;22.70;99.90;;;;;;1050973;28;20599;-68
2022/08/23 02:33:05;;;;;;;3.97;2.53;;;22.70;99.90;;;;;;1047393;28;20552;-71
2022/08/23 02:33:35;;;;;;;3.35;2.75;;;22.70;99.90;;;;;;1047769;28;20012;-75
2022/08/23 02:34:06;;;;;;;3.17;2.43;;;22.70;99.90;;;;;;1047080;28;20371;-69
2022/08/23 02:34:37;;;;;;;4.23;2.47;;;22.70;99.90;;;;;;1047072;28;20064;-69
2022/08/23 02:35:08;;;;;;;3.45;2.20;;;22.70;99.90;;;;;;1052764;28;20012;-69
2022/08/23 02:35:40;;;;;;;3.47;2.20;;;22.70;99.90;;;;;;1053286;28;20095;-70
2022/08/23 02:36:11;;;;;;;3.88;2.00;;;22.70;99.90;;;;;;1051236;28;20020;-72
2022/08/23 02:36:44;;;;;;;3.13;2.10;;;22.70;99.90;;;;;;1050260;28;20040;-70
2022/08/23 02:37:14;;;;;;;3.85;2.70;;;22.70;99.90;;;;;;1043023;28;20130;-70
2022/08/23 02:37:45;;;;;;;4.10;1.97;;;22.70;99.90;;;;;;1046350;28;20435;-70
2022/08/23 02:38:17;;;;;;;3.87;2.47;;;22.70;99.90;;;;;;1046473;28;20020;-69
2022/08/23 02:38:48;;;;;;;3.80;2.17;;;22.70;99.90;;;;;;1048742;28;20432;-72
2022/08/23 02:39:19;;;;;;;2.42;2.22;;;22.70;99.90;;;;;;1052165;28;20014;-71
2022/08/23 02:39:50;;;;;;;3.53;2.30;;;22.60;99.90;;;;;;1046814;28;20025;-71
2022/08/23 02:40:21;;;;;;;3.07;2.53;;;22.60;99.90;;;;;;1046807;28;20064;-71
2022/08/23 02:40:51;;;;;;;5.03;2.77;;;22.60;99.90;;;;;;1046716;28;20103;-71
2022/08/23 02:41:22;;;;;;;3.80;2.50;;;22.60;99.90;;;;;;1046963;28;20693;-71
2022/08/23 02:41:53;;;;;;;3.13;2.20;;;22.60;99.90;;;;;;1049202;28;20020;-71
2022/08/23 02:42:24;;;;;;;3.80;2.80;;;22.60;99.90;;;;;;1055833;28;20042;-71
2022/08/23 02:42:54;;;;;;;5.20;2.83;;;22.60;99.90;;;;;;1055487;28;20098;-71
2022/08/23 02:43:25;;;;;;;3.87;2.30;;;22.60;99.90;;;;;;1050949;28;20028;-70
2022/08/23 02:43:55;;;;;;;3.53;2.57;;;22.60;99.90;;;;;;1050930;28;20528;-70
2022/08/23 02:44:26;;;;;;;4.13;2.53;;;22.60;99.90;;;;;;1047400;28;20025;-70
2022/08/23 02:44:58;;;;;;;4.23;2.63;;;22.60;99.90;;;;;;1046941;28;20039;-71
2022/08/23 02:45:28;;;;;;;4.30;2.58;;;22.60;99.90;;;;;;1043655;28;20777;-70
2022/08/23 02:45:59;;;;;;;2.90;2.17;;;22.60;99.90;;;;;;1046613;28;20800;-70
2022/08/23 02:46:30;;;;;;;4.77;2.47;;;22.60;99.90;;;;;;1047131;28;20040;-70
2022/08/23 02:47:01;;;;;;;4.07;2.23;;;22.60;99.90;;;;;;1046806;28;20571;-70
2022/08/23 02:47:31;;;;;;;2.47;2.00;;;22.60;99.90;;;;;;1052461;28;20016;-70
2022/08/23 02:48:03;;;;;;;3.47;2.17;;;22.60;99.90;;;;;;1046630;28;20174;-69
2022/08/23 02:48:35;;;;;;;6.80;2.40;;;22.60;99.90;;;;;;1042578;28;20013;-71
2022/08/23 02:49:06;;;;;;;2.42;2.22;;;22.60;99.90;;;;;;1042733;28;20100;-69
2022/08/23 02:49:37;;;;;;;3.22;2.38;;;22.60;99.90;;;;;;1045905;28;20044;-69
2022/08/23 02:50:08;;;;;;;5.07;2.40;;;22.60;99.90;;;;;;1047668;28;20012;-70
2022/08/23 02:50:39;;;;;;;4.03;2.60;;;22.60;99.90;;;;;;1050840;28;20665;-70
2022/08/23 02:51:09;;;;;;;3.50;2.20;;;22.60;99.90;;;;;;1049045;28;20341;-70
2022/08/23 02:51:41;;;;;;;2.57;2.17;;;22.60;99.90;;;;;;1051172;28;20107;-71
2022/08/23 02:52:11;;;;;;;4.15;2.63;;;22.60;99.90;;;;;;1051177;28;20019;-70
2022/08/23 02:52:42;;;;;;;3.07;2.67;;;22.60;99.90;;;;;;1055549;28;20027;-70
2022/08/23 02:53:13;;;;;;;3.97;2.53;;;22.60;99.90;;;;;;1057482;27;20022;-70
2022/08/23 02:53:43;;;;;;;5.43;2.60;;;22.60;99.90;;;;;;1050994;28;20027;-71
2022/08/23 02:54:14;;;;;;;5.47;2.60;;;22.60;99.90;;;;;;1049029;28;20039;-70
2022/08/23 02:54:44;;;;;;;3.53;2.83;;;22.60;99.90;;;;;;1046949;28;20021;-70
2022/08/23 02:55:15;;;;;;;4.40;2.60;;;22.50;99.90;;;;;;1042768;28;20020;-70
2022/08/23 02:55:47;;;;;;;4.00;2.40;;;22.50;99.90;;;;;;1043228;28;20021;-70